createdAt,value
2022-12-25T00:00:15.227Z,59.85
2022-12-25T00:01:06.059Z,59.95
2022-12-25T00:02:01.505Z,59.75
2022-12-25T00:02:57.260Z,59.75
2022-12-25T00:03:52.836Z,60.75
2022-12-25T00:04:48.122Z,60.45
2022-12-25T00:05:43.652Z,60.65
2022-12-25T00:06:39.181Z,60.65
2022-12-25T00:07:34.711Z,61.05
2022-12-25T00:08:30.246Z,61.15
2022-12-25T00:09:25.779Z,61.15
2022-12-25T00:10:21.300Z,61.25
2022-12-25T00:11:16.835Z,61.05
2022-12-25T00:12:12.477Z,61.05
2022-12-25T00:13:08.012Z,61.05
2022-12-25T00:14:03.537Z,61.05
2022-12-25T00:14:59.065Z,60.96
2022-12-25T00:15:54.594Z,61.15
2022-12-25T00:16:50.245Z,61.15
2022-12-25T00:17:45.640Z,61.15
2022-12-25T00:18:41.169Z,61.25
2022-12-25T00:19:36.704Z,61.05
2022-12-25T00:20:32.234Z,60.93
2022-12-25T00:21:27.771Z,61.25
2022-12-25T00:22:23.302Z,60.85
2022-12-25T00:23:18.827Z,61.25
2022-12-25T00:24:14.357Z,61.25
2022-12-25T00:25:09.906Z,61.35
2022-12-25T00:26:05.414Z,61.46
2022-12-25T00:27:00.946Z,61.46
2022-12-25T00:27:56.467Z,61.55
2022-12-25T00:28:52.032Z,61.22
2022-12-25T00:29:47.546Z,61.02
2022-12-25T00:30:43.060Z,61.52
2022-12-25T00:31:38.688Z,61.55
2022-12-25T00:32:34.154Z,61.05
2022-12-25T00:33:29.661Z,61.25
2022-12-25T00:34:25.194Z,61.25
2022-12-25T00:35:20.733Z,61.13
2022-12-25T00:36:16.272Z,61.35
2022-12-25T00:37:11.814Z,61.15
2022-12-25T00:38:07.328Z,61.52
2022-12-25T00:39:02.856Z,61.13
2022-12-25T00:39:58.389Z,61.13
2022-12-25T00:40:53.911Z,61.55
2022-12-25T00:41:49.443Z,61.76
2022-12-25T00:42:45.165Z,61.55
2022-12-25T00:43:40.956Z,61.46
2022-12-25T00:44:37.071Z,61.46
2022-12-25T00:45:32.811Z,61.96
2022-12-25T00:46:28.384Z,61.83
2022-12-25T00:47:23.881Z,61.66
2022-12-25T00:48:19.396Z,61.66
2022-12-25T00:49:14.950Z,61.72
2022-12-25T00:50:10.500Z,61.63
2022-12-25T00:51:06.007Z,61.63
2022-12-25T00:52:01.538Z,61.76
2022-12-25T00:52:57.068Z,61.66
2022-12-25T00:53:52.588Z,61.83
2022-12-25T00:54:48.134Z,61.63
2022-12-25T00:55:43.660Z,61.63
2022-12-25T00:56:39.179Z,62.16
2022-12-25T00:57:34.693Z,62.43
2022-12-25T00:58:30.226Z,62.36
2022-12-25T00:59:25.761Z,62.53
2022-12-25T01:00:21.289Z,62.13
2022-12-25T01:01:17.018Z,61.93
2022-12-25T01:02:12.528Z,61.96
2022-12-25T01:03:07.997Z,62.03
2022-12-25T01:04:03.427Z,62.13
2022-12-25T01:04:58.952Z,62.16
2022-12-25T01:05:54.473Z,62.46
2022-12-25T01:06:50.006Z,62.03
2022-12-25T01:07:45.538Z,62.33
2022-12-25T01:08:41.086Z,62.43
2022-12-25T01:09:36.608Z,62.23
2022-12-25T01:10:32.149Z,62.16
2022-12-25T01:11:27.678Z,62.23
2022-12-25T01:12:23.212Z,62.43
2022-12-25T01:13:18.746Z,62.23
2022-12-25T01:14:14.272Z,62.13
2022-12-25T01:15:09.815Z,62.33
2022-12-25T01:16:05.393Z,62.76
2022-12-25T01:17:00.873Z,62.93
2022-12-25T01:17:56.407Z,63.06
2022-12-25T01:18:51.934Z,63.06
2022-12-25T01:19:47.483Z,63.03
2022-12-25T01:20:42.987Z,62.86
2022-12-25T01:21:39.144Z,62.73
2022-12-25T01:22:35.383Z,62.86
2022-12-25T01:23:30.901Z,63.13
2022-12-25T01:24:26.434Z,63.26
2022-12-25T01:25:21.956Z,63.23
2022-12-25T01:26:17.489Z,63.03
2022-12-25T01:27:13.129Z,63.26
2022-12-25T01:28:08.645Z,63.13
2022-12-25T01:29:04.172Z,62.83
2022-12-25T01:29:59.702Z,63.03
2022-12-25T01:30:55.238Z,62.83
2022-12-25T01:31:50.884Z,63.67
2022-12-25T01:32:46.308Z,64.04
2022-12-25T01:33:41.849Z,63.53
2022-12-25T01:34:37.364Z,63.53
2022-12-25T01:35:32.925Z,63.53
2022-12-25T01:36:28.454Z,63.33
2022-12-25T01:37:23.963Z,62.93
2022-12-25T01:38:19.499Z,63.64
2022-12-25T01:39:15.022Z,62.83
2022-12-25T01:40:10.576Z,63.03
2022-12-25T01:41:06.094Z,63.53
2022-12-25T01:42:01.617Z,63.23
2022-12-25T01:42:57.144Z,63.56
2022-12-25T01:43:52.683Z,63.33
2022-12-25T01:44:48.219Z,63.13
2022-12-25T01:45:43.870Z,63.33
2022-12-25T01:46:39.286Z,63.67
2022-12-25T01:47:34.812Z,63.67
2022-12-25T01:48:30.341Z,62.96
2022-12-25T01:49:25.857Z,63.06
2022-12-25T01:50:21.393Z,63.43
2022-12-25T01:51:16.941Z,63.13
2022-12-25T01:52:12.461Z,63.33
2022-12-25T01:53:07.981Z,63.43
2022-12-25T01:54:03.527Z,63.06
2022-12-25T01:54:59.059Z,63.46
2022-12-25T01:55:54.596Z,63.43
2022-12-25T01:56:50.138Z,63.33
2022-12-25T01:57:45.664Z,63.13
2022-12-25T01:58:41.191Z,63.53
2022-12-25T01:59:36.724Z,63.76
2022-12-25T02:00:32.260Z,63.33
2022-12-25T02:01:28.020Z,63.46
2022-12-25T02:02:23.511Z,63.13
2022-12-25T02:03:18.924Z,63.33
2022-12-25T02:04:14.391Z,63.23
2022-12-25T02:05:09.935Z,63.23
2022-12-25T02:06:05.556Z,63.36
2022-12-25T02:07:01.104Z,63.13
2022-12-25T02:07:56.620Z,63.43
2022-12-25T02:08:52.146Z,63.36
2022-12-25T02:09:47.702Z,63.43
2022-12-25T02:10:43.223Z,63.03
2022-12-25T02:11:38.751Z,63.43
2022-12-25T02:12:34.282Z,63.23
2022-12-25T02:13:29.807Z,63.43
2022-12-25T02:14:25.320Z,63.03
2022-12-25T02:15:20.853Z,63.23
2022-12-25T02:16:16.428Z,63.43
2022-12-25T02:17:11.994Z,63.23
2022-12-25T02:18:07.431Z,63.23
2022-12-25T02:19:02.961Z,63.93
2022-12-25T02:19:58.502Z,64.04
2022-12-25T02:20:54.035Z,63.93
2022-12-25T02:21:49.577Z,64.14
2022-12-25T02:22:45.125Z,63.33
2022-12-25T02:23:40.638Z,63.13
2022-12-25T02:24:36.165Z,63.23
2022-12-25T02:25:31.713Z,63.93
2022-12-25T02:26:27.245Z,63.23
2022-12-25T02:27:22.765Z,63.93
2022-12-25T02:28:18.283Z,63.64
2022-12-25T02:29:13.814Z,63.64
2022-12-25T02:30:09.404Z,63.53
2022-12-25T02:31:04.960Z,63.46
2022-12-25T02:32:00.573Z,63.93
2022-12-25T02:32:56.012Z,63.53
2022-12-25T02:33:51.543Z,63.84
2022-12-25T02:34:47.075Z,63.84
2022-12-25T02:35:42.607Z,64.04
2022-12-25T02:36:38.180Z,63.64
2022-12-25T02:37:33.685Z,63.53
2022-12-25T02:38:29.238Z,63.53
2022-12-25T02:39:24.753Z,63.84
2022-12-25T02:40:20.275Z,63.46
2022-12-25T02:41:15.811Z,64.14
2022-12-25T02:42:11.343Z,64.04
2022-12-25T02:43:06.867Z,64.04
2022-12-25T02:44:02.413Z,63.84
2022-12-25T02:44:57.922Z,63.93
2022-12-25T02:45:53.528Z,64.04
2022-12-25T02:46:48.992Z,63.93
2022-12-25T02:47:44.525Z,63.93
2022-12-25T02:48:40.057Z,64.17
2022-12-25T02:49:35.577Z,63.53
2022-12-25T02:50:31.101Z,63.67
2022-12-25T02:51:26.628Z,63.93
2022-12-25T02:52:22.165Z,63.73
2022-12-25T02:53:17.693Z,63.73
2022-12-25T02:54:13.250Z,63.64
2022-12-25T02:55:08.774Z,64.34
2022-12-25T02:56:04.299Z,64.43
2022-12-25T02:56:59.817Z,63.73
2022-12-25T02:57:55.358Z,63.84
2022-12-25T02:58:50.888Z,64.04
2022-12-25T02:59:46.417Z,63.73
2022-12-25T03:00:41.941Z,63.96
2022-12-25T03:01:37.646Z,63.84
2022-12-25T03:02:33.099Z,63.93
2022-12-25T03:03:28.599Z,63.84
2022-12-25T03:04:24.060Z,63.84
2022-12-25T03:05:19.590Z,63.93
2022-12-25T03:06:15.121Z,63.93
2022-12-25T03:07:10.656Z,64.24
2022-12-25T03:08:06.197Z,63.96
2022-12-25T03:09:01.731Z,63.93
2022-12-25T03:09:57.285Z,63.93
2022-12-25T03:10:52.797Z,63.93
2022-12-25T03:11:48.336Z,63.84
2022-12-25T03:12:43.856Z,63.93
2022-12-25T03:13:39.393Z,64.04
2022-12-25T03:14:34.936Z,63.84
2022-12-25T03:15:30.492Z,63.93
2022-12-25T03:16:26.061Z,63.73
2022-12-25T03:17:21.555Z,63.93
2022-12-25T03:18:17.089Z,63.96
2022-12-25T03:19:12.614Z,63.84
2022-12-25T03:20:08.155Z,63.84
2022-12-25T03:21:03.700Z,63.93
2022-12-25T03:21:59.218Z,63.93
2022-12-25T03:22:54.740Z,63.93
2022-12-25T03:23:50.290Z,64.04
2022-12-25T03:24:45.808Z,63.84
2022-12-25T03:25:41.369Z,63.73
2022-12-25T03:26:36.880Z,63.64
2022-12-25T03:27:32.412Z,64.04
2022-12-25T03:28:27.949Z,64.54
2022-12-25T03:29:27.161Z,64.24
2022-12-25T03:30:19.040Z,63.84
2022-12-25T03:31:14.646Z,63.84
2022-12-25T03:32:10.121Z,64.57
2022-12-25T03:33:18.092Z,64.37
2022-12-25T03:34:01.182Z,63.53
2022-12-25T03:34:56.720Z,64.24
2022-12-25T03:35:52.245Z,64.14
2022-12-25T03:36:47.782Z,64.43
2022-12-25T03:37:43.308Z,64.43
2022-12-25T03:38:38.835Z,64.57
2022-12-25T03:39:34.364Z,64.54
2022-12-25T03:40:29.905Z,64.27
2022-12-25T03:41:25.437Z,64.43
2022-12-25T03:42:20.960Z,64.04
2022-12-25T03:43:16.506Z,63.93
2022-12-25T03:44:12.027Z,64.94
2022-12-25T03:45:07.558Z,64.43
2022-12-25T03:46:03.197Z,64.24
2022-12-25T03:46:58.618Z,64.87
2022-12-25T03:47:54.151Z,64.87
2022-12-25T03:48:49.683Z,64.64
2022-12-25T03:49:46.224Z,64.14
2022-12-25T03:50:41.758Z,64.17
2022-12-25T03:51:37.300Z,64.24
2022-12-25T03:52:32.819Z,64.14
2022-12-25T03:53:28.352Z,65.17
2022-12-25T03:54:23.872Z,64.94
2022-12-25T03:55:19.415Z,63.93
2022-12-25T03:56:14.935Z,64.14
2022-12-25T03:57:10.481Z,64.64
2022-12-25T03:58:05.993Z,63.93
2022-12-25T03:59:01.519Z,64.64
2022-12-25T03:59:57.053Z,64.24
2022-12-25T04:00:52.609Z,63.93
2022-12-25T04:01:48.347Z,64.24
2022-12-25T04:02:43.894Z,64.24
2022-12-25T04:03:39.254Z,65.24
2022-12-25T04:04:34.752Z,64.14
2022-12-25T04:05:30.288Z,64.84
2022-12-25T04:06:25.821Z,64.64
2022-12-25T04:07:21.358Z,64.24
2022-12-25T04:08:16.890Z,65.34
2022-12-25T04:09:12.423Z,64.57
2022-12-25T04:10:07.960Z,64.74
2022-12-25T04:11:03.482Z,64.57
2022-12-25T04:12:02.712Z,65.44
2022-12-25T04:12:54.590Z,64.54
2022-12-25T04:13:50.083Z,64.47
2022-12-25T04:14:45.624Z,64.57
2022-12-25T04:15:41.251Z,64.97
2022-12-25T04:16:36.674Z,64.94
2022-12-25T04:17:32.218Z,64.74
2022-12-25T04:18:27.741Z,65.27
2022-12-25T04:19:23.265Z,64.54
2022-12-25T04:20:18.799Z,65.17
2022-12-25T04:21:14.333Z,65.07
2022-12-25T04:22:09.871Z,64.47
2022-12-25T04:23:05.394Z,64.47
2022-12-25T04:24:00.922Z,64.04
2022-12-25T04:24:56.450Z,65.04
2022-12-25T04:25:51.968Z,65.24
2022-12-25T04:26:47.495Z,64.54
2022-12-25T04:27:43.026Z,64.43
2022-12-25T04:28:38.589Z,64.64
2022-12-25T04:29:34.100Z,64.37
2022-12-25T04:30:18.751Z,65.54
2022-12-25T04:31:14.318Z,64.57
2022-12-25T04:32:09.811Z,64.64
2022-12-25T04:33:05.350Z,64.47
2022-12-25T04:34:00.876Z,64.43
2022-12-25T04:34:56.408Z,64.94
2022-12-25T04:35:51.941Z,64.64
2022-12-25T04:36:47.462Z,64.94
2022-12-25T04:37:42.988Z,64.94
2022-12-25T04:38:38.524Z,64.94
2022-12-25T04:39:34.061Z,64.94
2022-12-25T04:40:29.599Z,64.84
2022-12-25T04:41:25.119Z,64.67
2022-12-25T04:42:20.661Z,65.04
2022-12-25T04:43:16.176Z,64.84
2022-12-25T04:44:11.737Z,64.57
2022-12-25T04:45:07.251Z,65.37
2022-12-25T04:46:02.916Z,64.94
2022-12-25T04:46:58.302Z,65.27
2022-12-25T04:47:53.824Z,65.27
2022-12-25T04:48:49.354Z,65.04
2022-12-25T04:49:44.888Z,64.54
2022-12-25T04:50:40.425Z,64.34
2022-12-25T04:51:35.957Z,64.94
2022-12-25T04:52:31.479Z,64.84
2022-12-25T04:53:27.016Z,64.57
2022-12-25T04:54:22.556Z,64.94
2022-12-25T04:55:18.073Z,65.04
2022-12-25T04:56:13.623Z,64.94
2022-12-25T04:57:09.150Z,64.57
2022-12-25T04:58:04.679Z,64.64
2022-12-25T04:59:00.209Z,64.43
2022-12-25T04:59:55.796Z,64.64
2022-12-25T05:00:51.303Z,64.54
2022-12-25T05:01:46.945Z,64.64
2022-12-25T05:02:42.489Z,64.43
2022-12-25T05:03:37.940Z,64.67
2022-12-25T05:04:33.423Z,64.57
2022-12-25T05:05:28.957Z,64.64
2022-12-25T05:06:24.509Z,64.84
2022-12-25T05:07:20.027Z,64.87
2022-12-25T05:08:15.549Z,64.87
2022-12-25T05:09:11.136Z,64.24
2022-12-25T05:10:06.655Z,65.14
2022-12-25T05:11:02.180Z,64.27
2022-12-25T05:11:57.726Z,64.84
2022-12-25T05:12:53.289Z,64.54
2022-12-25T05:13:48.797Z,64.14
2022-12-25T05:14:44.321Z,64.43
2022-12-25T05:15:39.985Z,64.43
2022-12-25T05:16:35.440Z,64.74
2022-12-25T05:17:30.938Z,64.34
2022-12-25T05:18:26.460Z,64.17
2022-12-25T05:19:21.991Z,64.17
2022-12-25T05:20:17.534Z,64.64
2022-12-25T05:21:13.078Z,64.67
2022-12-25T05:22:08.593Z,64.64
2022-12-25T05:23:04.118Z,65.14
2022-12-25T05:23:59.646Z,65.14
2022-12-25T05:24:55.186Z,64.87
2022-12-25T05:25:50.703Z,64.64
2022-12-25T05:26:46.235Z,64.24
2022-12-25T05:27:41.776Z,64.34
2022-12-25T05:28:37.304Z,65.17
2022-12-25T05:29:32.830Z,64.54
2022-12-25T05:30:28.366Z,64.64
2022-12-25T05:31:24.024Z,64.67
2022-12-25T05:32:19.421Z,64.47
2022-12-25T05:33:14.954Z,64.54
2022-12-25T05:34:10.483Z,64.04
2022-12-25T05:35:06.007Z,64.14
2022-12-25T05:36:01.550Z,64.14
2022-12-25T05:36:57.079Z,64.24
2022-12-25T05:37:52.600Z,64.43
2022-12-25T05:38:48.142Z,63.84
2022-12-25T05:39:43.716Z,64.57
2022-12-25T05:40:39.234Z,64.24
2022-12-25T05:41:35.128Z,64.64
2022-12-25T05:42:30.315Z,64.43
2022-12-25T05:43:25.850Z,64.64
2022-12-25T05:44:21.384Z,63.93
2022-12-25T05:45:16.904Z,64.14
2022-12-25T05:46:12.500Z,64.64
2022-12-25T05:47:08.094Z,64.64
2022-12-25T05:48:03.511Z,64.64
2022-12-25T05:48:59.035Z,65.14
2022-12-25T05:49:54.562Z,64.94
2022-12-25T05:50:50.104Z,64.64
2022-12-25T05:51:45.637Z,64.43
2022-12-25T05:52:41.167Z,64.84
2022-12-25T05:53:36.728Z,63.93
2022-12-25T05:54:32.223Z,64.74
2022-12-25T05:55:27.759Z,64.17
2022-12-25T05:56:23.288Z,64.04
2022-12-25T05:57:18.820Z,64.17
2022-12-25T05:58:14.349Z,64.34
2022-12-25T05:59:09.923Z,64.14
2022-12-25T06:00:05.425Z,64.24
2022-12-25T06:01:01.025Z,64.24
2022-12-25T06:01:56.543Z,64.14
2022-12-25T06:02:52.188Z,64.34
2022-12-25T06:03:47.711Z,64.14
2022-12-25T06:04:43.082Z,64.27
2022-12-25T06:05:38.610Z,64.17
2022-12-25T06:06:34.138Z,63.93
2022-12-25T06:07:29.661Z,64.34
2022-12-25T06:08:25.189Z,64.04
2022-12-25T06:09:20.727Z,64.24
2022-12-25T06:10:16.256Z,64.24
2022-12-25T06:11:11.793Z,64.24
2022-12-25T06:12:07.311Z,64.17
2022-12-25T06:13:02.839Z,64.34
2022-12-25T06:13:58.384Z,64.04
2022-12-25T06:14:53.915Z,64.37
2022-12-25T06:15:49.590Z,64.07
2022-12-25T06:16:45.046Z,64.17
2022-12-25T06:17:40.519Z,64.04
2022-12-25T06:18:36.061Z,64.27
2022-12-25T06:19:31.569Z,64.04
2022-12-25T06:20:27.103Z,64.34
2022-12-25T06:21:22.631Z,64.04
2022-12-25T06:22:18.160Z,64.14
2022-12-25T06:23:13.744Z,64.07
2022-12-25T06:24:09.355Z,65.44
2022-12-25T06:25:04.765Z,65.34
2022-12-25T06:26:00.294Z,64.67
2022-12-25T06:26:55.836Z,64.14
2022-12-25T06:27:51.342Z,65.04
2022-12-25T06:28:46.892Z,64.54
2022-12-25T06:29:42.416Z,65.17
2022-12-25T06:30:37.951Z,64.24
2022-12-25T06:31:33.540Z,64.27
2022-12-25T06:32:28.995Z,64.64
2022-12-25T06:33:24.528Z,64.14
2022-12-25T06:34:20.107Z,64.64
2022-12-25T06:35:15.619Z,64.54
2022-12-25T06:36:11.154Z,64.64
2022-12-25T06:37:06.679Z,64.47
2022-12-25T06:38:02.203Z,64.43
2022-12-25T06:38:57.761Z,64.97
2022-12-25T06:39:53.286Z,64.54
2022-12-25T06:40:48.816Z,64.43
2022-12-25T06:41:44.339Z,63.93
2022-12-25T06:42:39.876Z,64.17
2022-12-25T06:43:35.445Z,64.64
2022-12-25T06:44:30.934Z,63.96
2022-12-25T06:45:26.524Z,64.14
2022-12-25T06:46:22.074Z,64.27
2022-12-25T06:47:17.516Z,63.96
2022-12-25T06:48:13.045Z,64.14
2022-12-25T06:49:08.606Z,64.27
2022-12-25T06:50:04.168Z,64.17
2022-12-25T06:50:59.698Z,64.14
2022-12-25T06:51:55.206Z,63.96
2022-12-25T06:52:50.729Z,63.96
2022-12-25T06:53:46.260Z,64.07
2022-12-25T06:54:53.051Z,64.17
2022-12-25T06:55:48.592Z,64.17
2022-12-25T06:56:44.151Z,64.07
2022-12-25T06:57:39.646Z,64.77
2022-12-25T06:58:35.176Z,64.27
2022-12-25T06:59:30.696Z,64.37
2022-12-25T07:00:26.224Z,64.37
2022-12-25T07:01:21.922Z,64.17
2022-12-25T07:02:17.353Z,64.17
2022-12-25T07:03:12.851Z,64.27
2022-12-25T07:04:08.331Z,64.27
2022-12-25T07:05:03.879Z,64.27
2022-12-25T07:05:59.408Z,64.07
2022-12-25T07:06:54.930Z,64.17
2022-12-25T07:07:50.481Z,64.27
2022-12-25T07:08:45.998Z,64.37
2022-12-25T07:09:41.519Z,64.27
2022-12-25T07:10:37.052Z,63.96
2022-12-25T07:11:32.578Z,64.17
2022-12-25T07:12:43.270Z,64.24
2022-12-25T07:13:38.789Z,64.17
2022-12-25T07:14:34.318Z,64.47
2022-12-25T07:15:29.849Z,64.27
2022-12-25T07:16:25.446Z,55.76
2022-12-25T07:17:20.903Z,53.22
2022-12-25T07:18:16.434Z,52.01
2022-12-25T07:19:11.958Z,50.24
2022-12-25T07:20:07.488Z,50.29
2022-12-25T07:21:03.035Z,48.50
2022-12-25T07:23:30.085Z,47.51
2022-12-25T07:24:25.613Z,47.43
2022-12-25T07:25:21.147Z,47.63
2022-12-25T07:26:16.662Z,47.33
2022-12-25T07:27:12.206Z,46.95
2022-12-25T07:28:07.750Z,47.55
2022-12-25T07:29:03.260Z,47.05
2022-12-25T07:29:58.790Z,46.87
2022-12-25T07:30:54.334Z,46.46
2022-12-25T07:31:50.014Z,48.00
2022-12-25T07:32:49.971Z,47.50
2022-12-25T07:33:40.977Z,47.30
2022-12-25T07:34:36.526Z,46.79
2022-12-25T07:35:32.062Z,46.59
2022-12-25T07:36:27.618Z,46.51
2022-12-25T07:37:23.132Z,48.54
2022-12-25T07:38:18.665Z,47.58
2022-12-25T07:39:14.196Z,47.43
2022-12-25T07:40:09.723Z,46.37
2022-12-25T07:41:05.252Z,46.56
2022-12-25T07:42:00.775Z,46.92
2022-12-25T07:42:56.320Z,46.59
2022-12-25T07:43:51.878Z,46.39
2022-12-25T07:44:47.391Z,47.67
2022-12-25T07:45:43.044Z,47.35
2022-12-25T07:46:38.467Z,47.66
2022-12-25T07:47:34.005Z,48.24
2022-12-25T07:48:29.546Z,49.15
2022-12-25T07:49:25.082Z,49.55
2022-12-25T07:50:20.610Z,50.15
2022-12-25T07:51:16.188Z,50.56
2022-12-25T07:52:11.798Z,51.03
2022-12-25T07:53:07.316Z,51.64
2022-12-25T07:54:02.855Z,51.73
2022-12-25T07:54:58.384Z,52.54
2022-12-25T07:55:53.925Z,52.94
2022-12-25T07:56:49.493Z,52.94
2022-12-25T07:57:44.992Z,53.05
2022-12-25T07:58:40.523Z,53.95
2022-12-25T07:59:36.060Z,53.95
2022-12-25T08:00:31.639Z,53.52
2022-12-25T08:01:27.636Z,53.92
2022-12-25T08:02:22.912Z,54.63
2022-12-25T08:03:18.452Z,55.56
2022-12-25T08:04:13.872Z,55.03
2022-12-25T08:05:09.310Z,54.53
2022-12-25T08:06:04.834Z,55.13
2022-12-25T08:07:00.365Z,55.13
2022-12-25T08:07:57.907Z,55.03
2022-12-25T08:08:51.418Z,55.43
2022-12-25T08:09:46.963Z,55.23
2022-12-25T08:10:42.485Z,55.23
2022-12-25T08:11:38.032Z,55.33
2022-12-25T08:12:33.564Z,55.94
2022-12-25T08:13:29.099Z,55.03
2022-12-25T08:14:24.635Z,55.74
2022-12-25T08:15:20.177Z,55.71
2022-12-25T08:16:15.738Z,55.63
2022-12-25T08:17:11.424Z,56.04
2022-12-25T08:18:06.773Z,55.94
2022-12-25T08:19:02.297Z,56.34
2022-12-25T08:19:57.832Z,56.31
2022-12-25T08:20:53.348Z,56.24
2022-12-25T08:21:48.884Z,56.54
2022-12-25T08:22:44.418Z,56.41
2022-12-25T08:23:40.006Z,56.41
2022-12-25T08:24:35.500Z,56.41
2022-12-25T08:25:31.033Z,56.71
2022-12-25T08:26:26.557Z,56.41
2022-12-25T08:27:22.095Z,56.04
2022-12-25T08:28:17.628Z,56.31
2022-12-25T08:29:13.145Z,56.62
2022-12-25T08:30:08.692Z,56.11
2022-12-25T08:31:04.342Z,56.71
2022-12-25T08:31:59.778Z,52.92
2022-12-25T08:32:55.308Z,52.54
2022-12-25T08:33:50.840Z,49.55
2022-12-25T08:34:46.371Z,50.80
2022-12-25T08:35:41.908Z,51.08
2022-12-25T08:36:37.442Z,51.66
2022-12-25T08:37:32.970Z,52.34
2022-12-25T08:38:28.549Z,52.54
2022-12-25T08:39:24.923Z,52.42
2022-12-25T08:40:20.267Z,52.92
2022-12-25T08:41:15.774Z,52.80
2022-12-25T08:42:11.320Z,53.90
2022-12-25T08:43:06.891Z,53.60
2022-12-25T08:44:02.391Z,54.17
2022-12-25T08:44:57.921Z,55.21
2022-12-25T08:45:53.495Z,54.71
2022-12-25T08:46:48.997Z,55.38
2022-12-25T08:47:44.540Z,55.28
2022-12-25T08:48:40.046Z,54.88
2022-12-25T08:49:35.580Z,55.08
2022-12-25T08:50:31.139Z,55.08
2022-12-25T08:51:26.659Z,55.28
2022-12-25T08:52:22.191Z,55.48
2022-12-25T08:53:17.785Z,55.99
2022-12-25T08:54:13.249Z,56.49
2022-12-25T08:55:08.798Z,55.99
2022-12-25T08:56:04.327Z,55.38
2022-12-25T08:57:02.897Z,55.35
2022-12-25T08:57:56.080Z,55.96
2022-12-25T08:58:51.600Z,55.86
2022-12-25T08:59:47.141Z,55.35
2022-12-25T09:00:42.671Z,55.96
2022-12-25T09:01:38.370Z,55.66
2022-12-25T09:02:33.980Z,55.55
2022-12-25T09:03:29.338Z,56.76
2022-12-25T09:04:24.828Z,56.36
2022-12-25T09:05:20.357Z,55.76
2022-12-25T09:06:15.947Z,56.46
2022-12-25T09:07:11.495Z,56.26
2022-12-25T09:08:07.003Z,56.36
2022-12-25T09:09:02.539Z,56.16
2022-12-25T09:09:58.081Z,56.46
2022-12-25T09:10:53.652Z,57.77
2022-12-25T09:11:49.158Z,57.34
2022-12-25T09:12:44.690Z,57.14
2022-12-25T09:13:40.215Z,57.67
2022-12-25T09:14:35.739Z,57.54
2022-12-25T09:15:31.373Z,57.04
2022-12-25T09:16:26.845Z,57.74
2022-12-25T09:17:22.396Z,57.54
2022-12-25T09:18:17.932Z,57.77
2022-12-25T09:19:13.486Z,58.34
2022-12-25T09:20:09.041Z,58.37
2022-12-25T09:21:04.581Z,57.74
2022-12-25T09:22:00.407Z,57.24
2022-12-25T09:22:55.979Z,58.14
2022-12-25T09:23:51.553Z,58.24
2022-12-25T09:24:47.211Z,58.04
2022-12-25T09:25:42.750Z,58.77
2022-12-25T09:26:38.308Z,58.84
2022-12-25T09:27:33.831Z,59.08
2022-12-25T09:28:29.344Z,58.77
2022-12-25T09:29:24.878Z,58.17
2022-12-25T09:30:20.436Z,58.57
2022-12-25T09:31:16.003Z,59.08
2022-12-25T09:32:11.531Z,58.97
2022-12-25T09:33:07.118Z,58.87
2022-12-25T09:34:02.621Z,58.87
2022-12-25T09:34:58.180Z,59.47
2022-12-25T09:36:05.004Z,59.10
2022-12-25T09:37:00.564Z,59.30
2022-12-25T09:37:56.100Z,59.20
2022-12-25T09:38:51.649Z,59.91
2022-12-25T09:39:47.207Z,59.70
2022-12-25T09:40:42.736Z,59.70
2022-12-25T09:41:38.281Z,59.70
2022-12-25T09:42:22.975Z,59.50
2022-12-25T09:43:18.497Z,59.50
2022-12-25T09:44:14.052Z,59.50
2022-12-25T09:45:09.617Z,59.30
2022-12-25T09:46:05.193Z,59.70
2022-12-25T09:47:00.761Z,59.30
2022-12-25T09:47:57.258Z,59.30
2022-12-25T09:48:52.837Z,59.70
2022-12-25T09:49:48.367Z,59.30
2022-12-25T09:50:43.911Z,59.60
2022-12-25T09:51:39.454Z,59.30
2022-12-25T09:52:35.012Z,58.90
2022-12-25T09:53:30.560Z,59.50
2022-12-25T09:54:26.110Z,59.10
2022-12-25T09:55:21.693Z,59.10
2022-12-25T09:56:17.222Z,59.10
2022-12-25T09:57:12.786Z,59.41
2022-12-25T09:58:08.337Z,59.41
2022-12-25T09:59:03.864Z,59.10
2022-12-25T09:59:59.403Z,59.50
2022-12-25T10:00:54.957Z,59.41
2022-12-25T10:01:50.614Z,59.50
2022-12-25T10:02:46.302Z,59.50
2022-12-25T10:03:41.701Z,59.20
2022-12-25T10:04:40.800Z,59.20
2022-12-25T10:05:32.707Z,59.20
2022-12-25T10:06:28.265Z,59.10
2022-12-25T10:07:23.800Z,59.10
2022-12-25T10:08:19.350Z,59.10
2022-12-25T10:09:14.892Z,59.41
2022-12-25T10:10:10.430Z,59.20
2022-12-25T10:11:05.970Z,59.00
2022-12-25T10:12:01.528Z,59.10
2022-12-25T10:12:57.101Z,59.10
2022-12-25T10:13:52.651Z,59.10
2022-12-25T10:14:48.187Z,59.10
2022-12-25T10:15:45.810Z,59.00
2022-12-25T10:16:39.398Z,59.20
2022-12-25T10:17:34.948Z,59.00
2022-12-25T10:18:30.505Z,58.90
2022-12-25T10:19:26.072Z,59.10
2022-12-25T10:20:21.606Z,59.30
2022-12-25T10:21:18.184Z,58.90
2022-12-25T10:22:13.711Z,58.90
2022-12-25T10:23:09.269Z,59.00
2022-12-25T10:24:04.881Z,58.90
2022-12-25T10:25:01.444Z,59.00
2022-12-25T10:25:56.976Z,58.80
2022-12-25T10:26:52.515Z,59.20
2022-12-25T10:27:48.062Z,59.20
2022-12-25T10:28:43.606Z,59.20
2022-12-25T10:29:39.163Z,59.20
2022-12-25T10:30:34.782Z,59.00
2022-12-25T10:31:30.415Z,58.70
2022-12-25T10:32:25.857Z,59.00
2022-12-25T10:33:21.395Z,59.20
2022-12-25T10:34:16.980Z,59.20
2022-12-25T10:35:12.529Z,59.20
2022-12-25T10:36:08.087Z,59.20
2022-12-25T10:37:03.603Z,59.10
2022-12-25T10:37:59.359Z,59.00
2022-12-25T10:38:54.915Z,59.00
2022-12-25T10:39:50.447Z,59.10
2022-12-25T10:40:45.984Z,59.10
2022-12-25T10:41:41.522Z,59.10
2022-12-25T10:42:37.090Z,59.10
2022-12-25T10:43:32.642Z,59.00
2022-12-25T10:44:28.174Z,59.00
2022-12-25T10:45:23.741Z,59.10
2022-12-25T10:46:19.358Z,59.00
2022-12-25T10:47:14.835Z,58.90
2022-12-25T10:48:10.382Z,59.10
2022-12-25T10:49:05.931Z,59.10
2022-12-25T10:50:01.546Z,59.10
2022-12-25T10:50:57.131Z,59.10
2022-12-25T10:51:52.673Z,58.90
2022-12-25T10:52:48.241Z,59.10
2022-12-25T10:53:43.784Z,59.00
2022-12-25T10:54:39.335Z,59.20
2022-12-25T10:55:34.876Z,59.00
2022-12-25T10:56:30.417Z,59.00
2022-12-25T10:57:25.982Z,58.70
2022-12-25T10:58:21.506Z,58.70
2022-12-25T10:59:17.052Z,59.30
2022-12-25T11:00:12.588Z,58.70
2022-12-25T11:01:08.167Z,58.50
2022-12-25T11:02:03.781Z,59.30
2022-12-25T11:02:59.769Z,58.50
2022-12-25T11:03:54.954Z,58.60
2022-12-25T11:04:50.459Z,59.10
2022-12-25T11:05:45.992Z,58.60
2022-12-25T11:06:41.549Z,58.90
2022-12-25T11:07:37.090Z,58.70
2022-12-25T11:08:32.622Z,58.60
2022-12-25T11:09:28.165Z,58.50
2022-12-25T11:10:23.705Z,58.60
2022-12-25T11:11:19.283Z,58.70
2022-12-25T11:12:14.815Z,58.90
2022-12-25T11:13:10.358Z,58.50
2022-12-25T11:14:05.899Z,58.70
2022-12-25T11:15:01.468Z,58.40
2022-12-25T11:15:57.002Z,58.60
2022-12-25T11:16:52.563Z,58.60
2022-12-25T11:17:48.182Z,58.40
2022-12-25T11:18:43.724Z,58.40
2022-12-25T11:19:39.278Z,58.50
2022-12-25T11:20:34.822Z,58.40
2022-12-25T11:21:30.374Z,58.50
2022-12-25T11:22:25.908Z,58.70
2022-12-25T11:23:21.445Z,58.50
2022-12-25T11:24:16.999Z,58.70
2022-12-25T11:25:12.572Z,58.60
2022-12-25T11:26:08.213Z,58.60
2022-12-25T11:27:03.765Z,58.60
2022-12-25T11:27:59.320Z,58.60
2022-12-25T11:28:54.865Z,58.50
2022-12-25T11:29:50.448Z,58.60
2022-12-25T11:30:45.988Z,58.60
2022-12-25T11:31:41.591Z,58.70
2022-12-25T11:32:37.095Z,58.50
2022-12-25T11:33:32.635Z,58.80
2022-12-25T11:34:28.174Z,58.60
2022-12-25T11:35:23.724Z,58.60
2022-12-25T11:36:19.269Z,58.29
2022-12-25T11:37:14.830Z,58.60
2022-12-25T11:38:10.372Z,58.50
2022-12-25T11:39:05.918Z,58.60
2022-12-25T11:40:01.466Z,58.60
2022-12-25T11:40:57.008Z,58.60
2022-12-25T11:41:53.578Z,58.60
2022-12-25T11:42:49.139Z,58.29
2022-12-25T11:43:44.687Z,58.60
2022-12-25T11:44:40.215Z,58.80
2022-12-25T11:45:35.750Z,58.70
2022-12-25T11:46:31.386Z,58.70
2022-12-25T11:47:26.838Z,58.50
2022-12-25T11:48:22.422Z,58.60
2022-12-25T11:49:17.966Z,58.80
2022-12-25T11:50:14.565Z,58.40
2022-12-25T11:51:10.057Z,58.70
2022-12-25T11:52:05.578Z,58.50
2022-12-25T11:53:01.128Z,58.50
2022-12-25T11:53:56.682Z,58.40
2022-12-25T11:54:41.344Z,58.50
2022-12-25T11:55:36.889Z,58.60
2022-12-25T11:56:32.432Z,58.50